Nett River, Minnesota
Current Conditions -  °F | °C
As of 6:54 AM on Saturday 01 Nov 2014 (Local Time) from KVWU Reporting Station
Clear Clear  
Wind Chill: 28°   Ceiling: Unl
Heat Index: 28°   Visibility: 10mi
Dew Point: 19°   Wind: 0mph
Humidity: 69%   Direction: NA
Pressure: 30.29"   Gusts: NA
Location:  48.1809°N, 93.8949°W
Report Text: KVWU 011154Z AUTO 00000KT 10SM CLR M02/M07 A3029 RMK AO2
Loading
Personal Weather Stations






























Interactive Weather Map
Tropical Storm Tracking
New forecast layout! Learn more

10-Day Weather Forecast

Advertisements
Track Severe Weather on mobile